createdAt,value
2023-03-31T00:01:24.220Z,66.08
2023-03-31T00:03:52.501Z,66.04
2023-03-31T00:06:22.081Z,66.00
2023-03-31T00:08:52.247Z,65.69
2023-03-31T00:11:20.990Z,66.00
2023-03-31T00:13:49.381Z,66.11
2023-03-31T00:16:17.407Z,66.37
2023-03-31T00:18:47.672Z,66.48
2023-03-31T00:21:25.699Z,66.82
2023-03-31T00:23:57.371Z,67.50
2023-03-31T00:26:26.278Z,67.15
2023-03-31T00:28:54.860Z,67.44
2023-03-31T00:31:23.742Z,67.28
2023-03-31T00:33:52.201Z,67.90
2023-03-31T00:36:27.431Z,67.64
2023-03-31T00:38:59.262Z,67.85
2023-03-31T00:41:28.599Z,67.98
2023-03-31T00:44:09.390Z,67.65
2023-03-31T00:46:41.385Z,67.44
2023-03-31T00:49:16.248Z,67.35
2023-03-31T00:51:44.939Z,66.86
2023-03-31T00:54:15.476Z,66.96
2023-03-31T00:56:48.466Z,66.57
2023-03-31T00:59:17.837Z,67.03
2023-03-31T01:01:50.612Z,67.39
2023-03-31T01:04:22.657Z,67.86
2023-03-31T01:07:01.009Z,68.62
2023-03-31T01:09:35.028Z,68.96
2023-03-31T01:12:07.166Z,69.30
2023-03-31T01:14:35.758Z,69.37
2023-03-31T01:17:05.452Z,68.90
2023-03-31T01:19:52.008Z,68.98
2023-03-31T01:22:59.437Z,68.97
2023-03-31T01:26:07.772Z,69.30
2023-03-31T01:28:41.997Z,69.37
2023-03-31T01:31:41.248Z,69.81
2023-03-31T01:34:41.655Z,70.66
2023-03-31T01:37:34.306Z,71.60
2023-03-31T01:40:16.147Z,71.06
2023-03-31T01:42:50.194Z,71.37
2023-03-31T01:45:28.194Z,71.20
2023-03-31T01:48:00.387Z,70.32
2023-03-31T01:50:32.526Z,70.68
2023-03-31T01:53:06.717Z,69.81
2023-03-31T01:55:39.114Z,69.55
2023-03-31T01:58:14.086Z,68.85
2023-03-31T02:00:46.810Z,68.64
2023-03-31T02:03:19.042Z,69.14
2023-03-31T02:05:52.707Z,69.43
2023-03-31T02:08:24.499Z,69.63
2023-03-31T02:10:55.459Z,69.61
2023-03-31T02:13:26.777Z,69.16
2023-03-31T02:15:58.066Z,69.29
2023-03-31T02:18:30.734Z,69.80
2023-03-31T02:21:00.317Z,69.84
2023-03-31T02:23:31.952Z,69.54
2023-03-31T02:26:06.476Z,69.67
2023-03-31T02:28:35.553Z,69.41
2023-03-31T02:31:15.040Z,69.44
2023-03-31T02:33:43.305Z,69.71
2023-03-31T02:36:11.568Z,69.46
2023-03-31T02:38:47.175Z,69.09
2023-03-31T02:41:16.815Z,69.20
2023-03-31T02:43:44.862Z,68.99
2023-03-31T02:46:12.899Z,68.82
2023-03-31T02:48:44.128Z,68.08
2023-03-31T02:51:44.697Z,67.51
2023-03-31T02:54:38.804Z,66.19
2023-03-31T02:57:39.247Z,65.72
2023-03-31T03:00:16.279Z,66.60
2023-03-31T03:03:01.608Z,66.40
2023-03-31T03:05:37.464Z,66.10
2023-03-31T03:08:32.377Z,66.39
2023-03-31T03:11:11.215Z,66.05
2023-03-31T03:13:49.013Z,65.80
2023-03-31T03:16:21.832Z,65.63
2023-03-31T03:18:57.422Z,65.13
2023-03-31T03:21:25.991Z,65.07
2023-03-31T03:23:54.833Z,63.87
2023-03-31T03:26:24.438Z,63.44
2023-03-31T03:28:54.002Z,62.62
2023-03-31T03:31:23.901Z,62.47
2023-03-31T03:33:52.037Z,62.14
2023-03-31T03:36:21.068Z,62.49
2023-03-31T03:38:49.045Z,62.51
2023-03-31T03:41:16.976Z,62.06
2023-03-31T03:43:44.951Z,61.86
2023-03-31T03:46:14.284Z,61.88
2023-03-31T03:48:42.314Z,62.35
2023-03-31T03:51:10.278Z,62.74
2023-03-31T03:53:38.236Z,64.12
2023-03-31T03:56:06.826Z,64.30
2023-03-31T03:58:34.892Z,64.26
2023-03-31T04:01:03.055Z,64.21
2023-03-31T04:03:32.623Z,64.53
2023-03-31T04:06:00.593Z,64.81
2023-03-31T04:08:28.511Z,64.49
2023-03-31T04:10:56.587Z,64.57
2023-03-31T04:13:24.892Z,64.47
2023-03-31T04:15:52.853Z,64.98
2023-03-31T04:18:23.939Z,65.75
2023-03-31T04:21:04.066Z,66.81
2023-03-31T04:23:32.512Z,67.06
2023-03-31T04:26:00.770Z,67.20
2023-03-31T04:28:34.842Z,67.31
2023-03-31T04:31:03.850Z,67.54
2023-03-31T04:33:34.155Z,68.37
2023-03-31T04:36:07.408Z,68.79
2023-03-31T04:38:35.649Z,69.12
2023-03-31T04:41:03.602Z,69.56
2023-03-31T04:43:31.585Z,69.25
2023-03-31T04:45:59.639Z,68.66
2023-03-31T04:48:27.578Z,69.61
2023-03-31T04:50:55.521Z,70.43
2023-03-31T04:53:24.915Z,69.81
2023-03-31T04:55:53.744Z,69.73
2023-03-31T04:58:21.661Z,70.06
2023-03-31T05:00:49.666Z,69.87
2023-03-31T05:03:17.754Z,69.48
2023-03-31T05:05:45.820Z,68.43
2023-03-31T05:08:13.997Z,68.53
2023-03-31T05:10:43.458Z,69.30
2023-03-31T05:13:11.964Z,68.95
2023-03-31T05:15:40.200Z,69.00
2023-03-31T05:18:08.635Z,68.99
2023-03-31T05:20:36.658Z,69.60
2023-03-31T05:23:04.647Z,69.14
2023-03-31T05:25:33.586Z,68.77
2023-03-31T05:28:03.519Z,68.48
2023-03-31T05:30:31.526Z,68.38
2023-03-31T05:32:59.547Z,68.44
2023-03-31T05:35:27.834Z,68.12
2023-03-31T05:37:55.799Z,67.94
2023-03-31T05:40:23.850Z,67.86
2023-03-31T05:42:51.876Z,67.30
2023-03-31T05:45:21.310Z,67.62
2023-03-31T05:47:49.320Z,67.34
2023-03-31T05:50:17.464Z,67.41
2023-03-31T05:52:45.383Z,67.12
2023-03-31T05:55:13.311Z,67.51
2023-03-31T05:57:41.280Z,66.93
2023-03-31T06:00:11.361Z,66.89
2023-03-31T06:02:41.244Z,67.80
2023-03-31T06:05:09.765Z,67.82
2023-03-31T06:07:37.738Z,67.23
2023-03-31T06:10:08.320Z,68.04
2023-03-31T06:12:36.611Z,67.74
2023-03-31T06:15:04.979Z,67.52
2023-03-31T06:17:32.971Z,66.86
2023-03-31T06:20:07.722Z,67.46
2023-03-31T06:22:44.177Z,67.00
2023-03-31T06:25:12.149Z,66.47
2023-03-31T06:27:40.140Z,67.82
2023-03-31T06:30:09.397Z,67.82
2023-03-31T06:32:37.388Z,68.57
2023-03-31T06:35:07.818Z,68.40
2023-03-31T06:37:35.969Z,69.00
2023-03-31T06:40:04.581Z,69.39
2023-03-31T06:42:32.514Z,70.04
2023-03-31T06:45:00.532Z,69.85
2023-03-31T06:47:28.468Z,69.73
2023-03-31T06:49:56.375Z,70.45
2023-03-31T06:52:25.699Z,70.55
2023-03-31T06:54:53.575Z,70.51
2023-03-31T06:57:21.718Z,70.55
2023-03-31T06:59:49.793Z,70.99
2023-03-31T07:02:17.789Z,70.65
2023-03-31T07:04:45.804Z,71.12
2023-03-31T07:07:13.696Z,70.83
2023-03-31T07:09:42.973Z,71.62
2023-03-31T07:12:10.933Z,72.29
2023-03-31T07:14:38.890Z,72.81
2023-03-31T07:17:06.825Z,73.07
2023-03-31T07:19:37.878Z,72.74
2023-03-31T07:22:06.191Z,72.80
2023-03-31T07:24:34.076Z,73.27
2023-03-31T07:27:03.361Z,72.88
2023-03-31T07:29:31.295Z,72.95
2023-03-31T07:31:59.192Z,73.07
2023-03-31T07:34:27.296Z,73.14
2023-03-31T07:36:56.369Z,73.96
2023-03-31T07:39:24.418Z,74.87
2023-03-31T07:41:52.400Z,76.14
2023-03-31T07:44:23.413Z,77.37
2023-03-31T07:46:51.392Z,78.44
2023-03-31T07:49:19.325Z,78.72
2023-03-31T07:51:47.227Z,80.24
2023-03-31T07:54:15.128Z,81.28
2023-03-31T07:56:43.150Z,81.40
2023-03-31T07:59:11.193Z,82.70
2023-03-31T08:01:40.712Z,83.42
2023-03-31T08:04:11.236Z,83.72
2023-03-31T08:06:40.908Z,83.77
2023-03-31T08:09:08.874Z,84.92
2023-03-31T08:11:36.809Z,84.15
2023-03-31T08:14:04.903Z,84.17
2023-03-31T08:16:32.821Z,83.53
2023-03-31T08:19:03.161Z,82.06
2023-03-31T08:21:31.359Z,81.61
2023-03-31T08:23:59.462Z,80.66
2023-03-31T08:26:27.489Z,80.10
2023-03-31T08:28:55.432Z,80.21
2023-03-31T08:31:27.413Z,79.75
2023-03-31T08:33:55.724Z,79.11
2023-03-31T08:36:25.078Z,79.94
2023-03-31T08:38:54.226Z,80.08
2023-03-31T08:41:32.268Z,79.76
2023-03-31T08:44:03.938Z,79.74
2023-03-31T08:46:33.634Z,79.15
2023-03-31T08:49:02.749Z,78.30
2023-03-31T08:51:37.153Z,78.18
2023-03-31T08:54:08.142Z,77.45
2023-03-31T08:56:39.322Z,77.35
2023-03-31T08:59:08.362Z,76.95
2023-03-31T09:01:54.720Z,76.49
2023-03-31T09:04:44.590Z,75.73
2023-03-31T09:07:21.417Z,75.32
2023-03-31T09:09:57.154Z,74.54
2023-03-31T09:12:32.277Z,74.65
2023-03-31T09:15:02.687Z,73.80
2023-03-31T09:17:34.233Z,73.09
2023-03-31T09:20:08.531Z,72.71
2023-03-31T09:22:40.983Z,72.33
2023-03-31T09:25:13.587Z,72.07
2023-03-31T09:27:44.313Z,71.68
2023-03-31T09:30:18.146Z,72.14
2023-03-31T09:32:49.263Z,71.86
2023-03-31T09:35:21.767Z,71.86
2023-03-31T09:37:53.834Z,71.23
2023-03-31T09:40:24.346Z,71.00
2023-03-31T09:42:58.326Z,69.78
2023-03-31T09:45:26.614Z,70.09
2023-03-31T09:47:56.908Z,69.68
2023-03-31T09:50:26.505Z,68.70
2023-03-31T09:52:58.887Z,68.37
2023-03-31T09:55:40.209Z,67.25
2023-03-31T09:58:09.309Z,67.21
2023-03-31T10:00:37.533Z,66.50
2023-03-31T10:03:08.462Z,65.92
2023-03-31T10:05:40.082Z,63.71
2023-03-31T10:08:30.291Z,61.15
2023-03-31T10:11:09.860Z,59.44
2023-03-31T10:13:45.524Z,61.42
2023-03-31T10:16:15.630Z,61.92
2023-03-31T10:18:44.951Z,60.95
2023-03-31T10:21:22.618Z,60.11
2023-03-31T10:23:52.441Z,60.47
2023-03-31T10:26:22.810Z,60.29
2023-03-31T10:28:53.083Z,60.72
2023-03-31T10:31:22.554Z,58.60
2023-03-31T10:33:52.948Z,57.58
2023-03-31T10:36:25.426Z,56.68
2023-03-31T10:38:55.958Z,55.37
2023-03-31T10:41:27.171Z,57.12
2023-03-31T10:43:56.887Z,58.76
2023-03-31T10:46:42.583Z,60.00
2023-03-31T10:49:17.667Z,61.36
2023-03-31T10:51:54.538Z,61.23
2023-03-31T10:54:23.898Z,62.06
2023-03-31T10:56:54.369Z,61.94
2023-03-31T10:59:38.687Z,62.28
2023-03-31T11:02:24.043Z,60.88
2023-03-31T11:05:02.010Z,62.68
2023-03-31T11:07:43.045Z,60.62
2023-03-31T11:10:28.072Z,58.88
2023-03-31T11:13:01.621Z,59.46
2023-03-31T11:15:39.362Z,57.03
2023-03-31T11:18:25.986Z,56.52
2023-03-31T11:21:02.794Z,54.61
2023-03-31T11:23:41.797Z,51.48
2023-03-31T11:26:15.616Z,51.28
2023-03-31T11:28:59.853Z,48.70
2023-03-31T11:31:35.324Z,49.30
2023-03-31T11:34:17.963Z,48.09
2023-03-31T11:37:04.153Z,48.08
2023-03-31T11:39:46.508Z,49.09
2023-03-31T11:42:19.388Z,48.37
2023-03-31T11:44:53.064Z,48.55
2023-03-31T11:47:25.595Z,48.94
2023-03-31T11:49:57.300Z,48.49
2023-03-31T11:52:30.671Z,49.08
2023-03-31T11:55:03.431Z,48.82
2023-03-31T11:57:37.776Z,48.34
2023-03-31T12:00:13.704Z,49.30
2023-03-31T12:02:47.529Z,48.87
2023-03-31T12:05:18.513Z,49.43
2023-03-31T12:07:54.044Z,49.69
2023-03-31T12:10:24.242Z,50.06
2023-03-31T12:13:03.002Z,50.05
2023-03-31T12:15:35.001Z,54.75
2023-03-31T12:18:11.662Z,57.24
2023-03-31T12:20:42.845Z,61.73
2023-03-31T12:23:16.355Z,60.00
2023-03-31T12:25:49.045Z,58.83
2023-03-31T12:28:19.468Z,59.49
2023-03-31T12:30:49.625Z,59.07
2023-03-31T12:33:23.135Z,60.66
2023-03-31T12:36:05.626Z,60.57
2023-03-31T12:38:46.542Z,60.31
2023-03-31T12:41:21.164Z,62.88
2023-03-31T12:44:14.420Z,61.63
2023-03-31T12:47:04.083Z,63.18
2023-03-31T12:49:50.281Z,61.10
2023-03-31T12:52:23.900Z,56.36
2023-03-31T12:55:28.902Z,57.71
2023-03-31T12:58:40.614Z,58.05
2023-03-31T13:01:18.102Z,53.39
2023-03-31T13:03:55.119Z,57.07
2023-03-31T13:07:02.641Z,58.88
2023-03-31T13:09:57.550Z,58.06
2023-03-31T13:12:28.190Z,58.55
2023-03-31T13:17:59.006Z,58.00
2023-03-31T13:20:35.956Z,59.89
2023-03-31T13:23:14.776Z,61.62
2023-03-31T13:25:47.790Z,63.81
2023-03-31T13:28:34.566Z,66.89
2023-03-31T13:31:03.987Z,62.94
2023-03-31T13:33:38.213Z,63.68
2023-03-31T13:36:24.479Z,63.61
2023-03-31T13:39:11.095Z,62.20
2023-03-31T13:41:51.291Z,62.19
2023-03-31T13:44:42.114Z,63.72
2023-03-31T13:47:47.771Z,62.86
2023-03-31T13:50:36.272Z,62.23
2023-03-31T13:53:20.474Z,65.16
2023-03-31T13:56:14.237Z,64.29
2023-03-31T13:59:13.013Z,64.69
2023-03-31T14:02:01.159Z,62.52
2023-03-31T14:04:57.066Z,61.71
2023-03-31T14:07:34.586Z,62.63
2023-03-31T14:10:04.358Z,62.12
2023-03-31T14:12:33.845Z,62.44
2023-03-31T14:15:02.216Z,62.82
2023-03-31T14:17:32.149Z,63.61
2023-03-31T14:20:15.420Z,63.53
2023-03-31T14:22:57.820Z,64.13
2023-03-31T14:25:40.849Z,63.75
2023-03-31T14:28:21.729Z,63.21
2023-03-31T14:31:02.854Z,62.74
2023-03-31T14:33:40.873Z,62.62
2023-03-31T14:36:19.310Z,60.95
2023-03-31T14:38:48.656Z,61.29
2023-03-31T14:41:21.406Z,61.21
2023-03-31T14:43:52.238Z,60.83
2023-03-31T14:46:22.619Z,61.54
2023-03-31T14:48:52.350Z,61.66
2023-03-31T14:51:27.455Z,60.70
2023-03-31T14:54:00.059Z,56.88
2023-03-31T14:56:34.798Z,57.09
2023-03-31T14:59:04.072Z,56.19
2023-03-31T15:01:35.854Z,54.81
2023-03-31T15:04:08.399Z,51.61
2023-03-31T15:06:39.736Z,52.24
2023-03-31T15:09:14.163Z,52.07
2023-03-31T15:11:42.175Z,52.18
2023-03-31T15:14:11.262Z,51.14
2023-03-31T15:16:43.257Z,50.80
2023-03-31T15:19:17.992Z,49.44
2023-03-31T15:21:46.907Z,50.26
2023-03-31T15:24:16.400Z,50.03
2023-03-31T15:26:48.863Z,50.76
2023-03-31T15:29:20.903Z,49.19
2023-03-31T15:31:49.447Z,49.78
2023-03-31T15:34:23.214Z,47.85
2023-03-31T15:36:52.008Z,49.48
2023-03-31T15:39:21.563Z,49.60
2023-03-31T15:41:50.040Z,49.50
2023-03-31T15:44:37.817Z,49.55
2023-03-31T15:47:15.053Z,48.75
2023-03-31T15:49:51.101Z,50.28
2023-03-31T15:52:34.289Z,50.35
2023-03-31T15:55:27.584Z,50.08
2023-03-31T15:57:56.997Z,50.39
2023-03-31T16:00:45.625Z,50.19
2023-03-31T16:03:18.203Z,49.97
2023-03-31T16:05:54.688Z,50.19
2023-03-31T16:08:29.672Z,50.45
2023-03-31T16:11:03.962Z,50.23
2023-03-31T16:13:33.789Z,50.23
2023-03-31T16:16:02.172Z,50.27
2023-03-31T16:18:36.208Z,50.85
2023-03-31T16:21:06.217Z,51.12
2023-03-31T16:23:38.752Z,54.13
2023-03-31T16:26:08.983Z,56.12
2023-03-31T16:28:38.552Z,57.09
2023-03-31T16:31:26.947Z,56.70
2023-03-31T16:33:56.556Z,56.45
2023-03-31T16:36:24.659Z,56.92
2023-03-31T16:38:53.064Z,56.64
2023-03-31T16:41:23.289Z,57.09
2023-03-31T16:43:52.461Z,57.40
2023-03-31T16:46:21.023Z,57.98
2023-03-31T16:48:49.195Z,57.71
2023-03-31T16:51:17.872Z,57.88
2023-03-31T16:53:46.838Z,59.16
2023-03-31T16:56:15.695Z,61.36
2023-03-31T16:58:45.373Z,77.38
2023-03-31T17:01:13.836Z,84.93
2023-03-31T17:03:42.950Z,95.73
2023-03-31T17:06:13.092Z,100.00
2023-03-31T17:08:41.845Z,97.42
2023-03-31T17:11:11.733Z,91.59
2023-03-31T17:13:40.620Z,87.13
2023-03-31T17:18:58.763Z,72.81
2023-03-31T17:21:27.178Z,74.68
2023-03-31T17:23:55.130Z,74.74
2023-03-31T17:26:23.710Z,74.71
2023-03-31T17:28:51.865Z,76.65
2023-03-31T17:31:24.524Z,74.48
2023-03-31T17:33:52.537Z,75.35
2023-03-31T17:36:22.284Z,76.53
2023-03-31T17:38:50.456Z,77.31
2023-03-31T17:41:18.349Z,77.27
2023-03-31T17:43:47.220Z,80.00
2023-03-31T17:46:16.232Z,81.58
2023-03-31T17:48:45.843Z,80.67
2023-03-31T17:51:15.282Z,81.24
2023-03-31T17:53:45.187Z,75.99
2023-03-31T17:56:14.202Z,75.97
2023-03-31T17:58:42.482Z,74.75
2023-03-31T18:01:11.822Z,73.94
2023-03-31T18:03:39.912Z,74.15
2023-03-31T18:06:11.590Z,72.95
2023-03-31T18:08:40.290Z,77.45
2023-03-31T18:11:09.659Z,80.48
2023-03-31T18:13:38.130Z,78.38
2023-03-31T18:16:09.567Z,79.08
2023-03-31T18:18:39.533Z,81.83
2023-03-31T18:21:10.515Z,84.65
2023-03-31T18:23:39.138Z,84.66
2023-03-31T18:26:07.707Z,83.44
2023-03-31T18:28:35.781Z,84.11
2023-03-31T18:31:04.870Z,84.25
2023-03-31T18:33:32.940Z,84.55
2023-03-31T18:36:01.241Z,85.99
2023-03-31T18:38:31.033Z,86.84
2023-03-31T18:40:59.293Z,86.07
2023-03-31T18:43:27.739Z,85.22
2023-03-31T18:45:58.785Z,85.44
2023-03-31T18:48:26.708Z,84.37
2023-03-31T18:50:55.253Z,84.84
2023-03-31T18:53:24.474Z,83.37
2023-03-31T18:55:55.777Z,83.46
2023-03-31T18:58:24.111Z,83.54
2023-03-31T19:00:52.383Z,84.88
2023-03-31T19:03:20.505Z,84.68
2023-03-31T19:05:48.859Z,85.96
2023-03-31T19:08:16.899Z,83.90
2023-03-31T19:10:44.763Z,84.01
2023-03-31T19:13:16.352Z,85.18
2023-03-31T19:15:44.324Z,84.33
2023-03-31T19:18:15.125Z,86.22
2023-03-31T19:20:43.256Z,86.40
2023-03-31T19:23:12.126Z,85.76
2023-03-31T19:25:40.028Z,86.43
2023-03-31T19:28:08.223Z,85.99
2023-03-31T19:30:37.519Z,86.40
2023-03-31T19:33:05.929Z,85.70
2023-03-31T19:35:34.482Z,84.69
2023-03-31T19:38:02.565Z,85.88
2023-03-31T19:40:30.462Z,85.42
2023-03-31T19:42:58.421Z,85.83
2023-03-31T19:45:26.449Z,86.13
2023-03-31T19:47:56.219Z,87.01
2023-03-31T19:50:24.604Z,84.89
2023-03-31T19:52:52.557Z,86.80
2023-03-31T19:55:20.553Z,87.25
2023-03-31T19:57:48.432Z,87.13
2023-03-31T20:00:19.496Z,87.89
2023-03-31T20:02:48.313Z,88.16
2023-03-31T20:05:19.667Z,87.16
2023-03-31T20:07:47.605Z,86.55
2023-03-31T20:10:15.922Z,86.38
2023-03-31T20:12:43.982Z,85.90
2023-03-31T20:15:11.977Z,84.75
2023-03-31T20:17:40.016Z,85.75
2023-03-31T20:20:09.236Z,85.85
2023-03-31T20:22:40.541Z,84.42
2023-03-31T20:25:09.174Z,85.60
2023-03-31T20:27:37.239Z,84.48
2023-03-31T20:30:06.231Z,86.25
2023-03-31T20:32:34.167Z,85.71
2023-03-31T20:35:02.249Z,86.18
2023-03-31T20:37:30.290Z,85.81
2023-03-31T20:39:59.614Z,85.64
2023-03-31T20:42:27.789Z,86.01
2023-03-31T20:44:55.741Z,86.51
2023-03-31T20:47:24.714Z,85.92
2023-03-31T20:49:52.763Z,86.33
2023-03-31T20:52:20.748Z,85.93
2023-03-31T20:54:48.686Z,84.49
2023-03-31T20:57:18.046Z,85.72
2023-03-31T20:59:46.010Z,84.10
2023-03-31T21:02:14.228Z,84.79
2023-03-31T21:04:42.281Z,83.89
2023-03-31T21:07:10.234Z,84.10
2023-03-31T21:09:38.152Z,84.52
2023-03-31T21:12:06.393Z,84.13
2023-03-31T21:14:35.762Z,83.44
2023-03-31T21:17:04.010Z,83.87
2023-03-31T21:19:32.724Z,83.91
2023-03-31T21:22:00.808Z,83.21
2023-03-31T21:24:28.696Z,84.27
2023-03-31T21:26:56.602Z,83.84
2023-03-31T21:29:24.500Z,84.24
2023-03-31T21:31:53.856Z,83.64
2023-03-31T21:34:21.751Z,83.36
2023-03-31T21:36:50.236Z,83.18
2023-03-31T21:39:18.136Z,82.81
2023-03-31T21:41:46.148Z,82.30
2023-03-31T21:44:15.035Z,82.22
2023-03-31T21:46:45.000Z,83.45
2023-03-31T21:49:15.718Z,83.06
2023-03-31T21:51:44.641Z,83.20
2023-03-31T21:54:12.586Z,82.52
2023-03-31T21:56:40.513Z,84.00
2023-03-31T21:59:08.783Z,82.12
2023-03-31T22:01:37.089Z,81.66
2023-03-31T22:04:05.165Z,82.29
2023-03-31T22:06:35.743Z,82.79
2023-03-31T22:09:03.713Z,82.10
2023-03-31T22:11:31.719Z,81.01
2023-03-31T22:13:59.631Z,81.04
2023-03-31T22:16:27.814Z,81.08
2023-03-31T22:18:56.245Z,81.38
2023-03-31T22:21:43.530Z,81.08
2023-03-31T22:24:13.021Z,81.45
2023-03-31T22:26:41.104Z,82.08
2023-03-31T22:29:09.058Z,81.19
2023-03-31T22:31:37.328Z,81.58
2023-03-31T22:34:05.460Z,81.47
2023-03-31T22:36:33.411Z,81.12
2023-03-31T22:39:02.817Z,81.28
2023-03-31T22:41:30.765Z,81.86
2023-03-31T22:43:59.181Z,82.52
2023-03-31T22:46:27.184Z,83.26
2023-03-31T22:48:55.575Z,81.38
2023-03-31T22:51:23.659Z,82.46
2023-03-31T22:53:52.200Z,81.60
2023-03-31T22:56:23.035Z,80.83
2023-03-31T22:58:51.336Z,79.72
2023-03-31T23:01:21.719Z,80.30
2023-03-31T23:03:50.091Z,78.80
2023-03-31T23:06:18.751Z,78.25
2023-03-31T23:08:48.927Z,78.26
2023-03-31T23:11:17.452Z,78.24
2023-03-31T23:13:47.394Z,79.27
2023-03-31T23:16:18.741Z,79.73
2023-03-31T23:18:48.479Z,79.59
2023-03-31T23:21:19.433Z,80.42
2023-03-31T23:23:47.567Z,81.82
2023-03-31T23:26:15.922Z,80.63
2023-03-31T23:28:45.472Z,80.87
2023-03-31T23:31:15.428Z,79.97
2023-03-31T23:33:43.600Z,81.97
2023-03-31T23:36:16.975Z,81.28
2023-03-31T23:38:45.433Z,82.40
2023-03-31T23:41:13.479Z,81.41
2023-03-31T23:43:41.910Z,80.16
2023-03-31T23:46:09.953Z,81.50
2023-03-31T23:48:39.969Z,80.43
2023-03-31T23:51:09.786Z,81.37
2023-03-31T23:53:37.989Z,80.69
2023-03-31T23:56:08.796Z,80.69
2023-03-31T23:58:37.514Z,80.96
